createdAt,value
2018-05-29T00:00:59.910Z,10.10
2018-05-29T00:03:27.379Z,9.90
2018-05-29T00:05:54.847Z,9.80
2018-05-29T00:08:22.319Z,9.80
2018-05-29T00:10:49.793Z,13.73
2018-05-29T00:13:17.257Z,10.43
2018-05-29T00:15:44.734Z,14.73
2018-05-29T00:18:12.198Z,13.70
2018-05-29T00:20:39.677Z,9.75
2018-05-29T00:23:07.137Z,9.45
2018-05-29T00:25:34.607Z,10.10
2018-05-29T00:28:02.078Z,10.13
2018-05-29T00:30:29.546Z,9.73
2018-05-29T00:32:57.016Z,10.13
2018-05-29T00:35:24.437Z,10.30
2018-05-29T00:37:51.954Z,10.02
2018-05-29T00:40:19.439Z,10.23
2018-05-29T00:42:46.904Z,11.88
2018-05-29T00:45:14.327Z,10.43
2018-05-29T00:47:41.842Z,10.13
2018-05-29T00:50:09.258Z,10.98
2018-05-29T00:52:36.686Z,10.18
2018-05-29T00:55:16.130Z,12.30
2018-05-29T00:57:43.563Z,9.52
2018-05-29T01:00:11.787Z,11.15
2018-05-29T01:02:39.259Z,9.30
2018-05-29T01:05:06.727Z,9.50
2018-05-29T01:07:34.199Z,10.15
2018-05-29T01:10:01.672Z,9.93
2018-05-29T01:12:29.139Z,9.90
2018-05-29T01:14:56.563Z,9.48
2018-05-29T01:17:23.991Z,9.85
2018-05-29T01:19:51.415Z,10.07
2018-05-29T01:22:19.606Z,9.98
2018-05-29T01:24:47.814Z,9.18
2018-05-29T01:27:15.246Z,10.15
2018-05-29T01:29:42.667Z,9.77
2018-05-29T01:32:10.128Z,9.60
2018-05-29T01:34:37.590Z,10.10
2018-05-29T01:37:05.062Z,10.18
2018-05-29T01:39:33.387Z,9.77
2018-05-29T01:42:00.922Z,9.85
2018-05-29T01:44:28.358Z,10.93
2018-05-29T01:46:55.862Z,10.43
2018-05-29T01:49:23.281Z,9.60
2018-05-29T01:51:50.853Z,9.50
2018-05-29T01:54:18.231Z,10.38
2018-05-29T01:56:45.742Z,9.88
2018-05-29T01:59:13.161Z,10.07
2018-05-29T02:01:40.594Z,9.73
2018-05-29T02:04:08.050Z,9.85
2018-05-29T02:06:35.521Z,9.98
2018-05-29T02:09:02.938Z,11.88
2018-05-29T02:11:30.467Z,12.75
2018-05-29T02:13:57.877Z,13.20
2018-05-29T02:16:25.311Z,10.80
2018-05-29T02:18:52.736Z,10.57
2018-05-29T02:21:20.951Z,10.25
2018-05-29T02:23:48.371Z,10.27
2018-05-29T02:26:15.798Z,9.77
2018-05-29T02:28:43.228Z,10.85
2018-05-29T02:31:11.455Z,10.38
2018-05-29T02:33:38.870Z,9.55
2018-05-29T02:36:06.392Z,9.95
2018-05-29T02:38:33.882Z,10.63
2018-05-29T02:41:01.311Z,10.65
2018-05-29T02:43:29.514Z,11.30
2018-05-29T02:45:56.997Z,10.40
2018-05-29T02:48:24.464Z,9.73
2018-05-29T02:50:51.924Z,10.48
2018-05-29T02:53:19.358Z,10.95
2018-05-29T02:55:46.868Z,15.63
2018-05-29T02:58:14.295Z,10.50
2018-05-29T03:00:41.910Z,10.98
2018-05-29T03:03:09.342Z,11.93
2018-05-29T03:05:37.535Z,10.68
2018-05-29T03:08:05.781Z,10.57
2018-05-29T03:10:33.934Z,9.85
2018-05-29T03:13:01.415Z,11.05
2018-05-29T03:15:28.840Z,10.98
2018-05-29T03:17:56.351Z,10.85
2018-05-29T03:20:23.818Z,10.05
2018-05-29T03:22:51.290Z,11.05
2018-05-29T03:25:18.719Z,11.60
2018-05-29T03:27:46.238Z,10.45
2018-05-29T03:30:13.654Z,10.40
2018-05-29T03:32:41.170Z,10.68
2018-05-29T03:35:08.610Z,10.80
2018-05-29T03:37:36.815Z,11.48
2018-05-29T03:40:04.238Z,11.43
2018-05-29T03:42:31.670Z,11.80
2018-05-29T03:44:59.094Z,11.43
2018-05-29T03:47:26.598Z,11.88
2018-05-29T03:49:54.075Z,11.40
2018-05-29T03:52:21.541Z,11.80
2018-05-29T03:54:48.973Z,11.45
2018-05-29T03:57:16.490Z,13.40
2018-05-29T03:59:43.910Z,10.73
2018-05-29T04:02:11.342Z,11.85
2018-05-29T04:04:38.998Z,13.88
2018-05-29T04:07:06.459Z,11.10
2018-05-29T04:09:34.787Z,11.50
2018-05-29T04:12:02.428Z,12.40
2018-05-29T04:14:29.841Z,14.15
2018-05-29T04:16:57.383Z,12.43
2018-05-29T04:19:24.835Z,12.07
2018-05-29T04:21:52.271Z,13.62
2018-05-29T04:24:19.781Z,12.07
2018-05-29T04:26:47.250Z,12.30
2018-05-29T04:29:14.675Z,13.55
2018-05-29T04:31:44.534Z,12.65
2018-05-29T04:34:16.725Z,13.62
2018-05-29T04:36:45.018Z,12.35
2018-05-29T04:39:12.495Z,13.43
2018-05-29T04:41:39.957Z,12.73
2018-05-29T04:44:07.526Z,12.73
2018-05-29T04:46:35.714Z,14.63
2018-05-29T04:49:03.142Z,12.43
2018-05-29T04:51:30.561Z,14.13
2018-05-29T04:53:58.028Z,12.82
2018-05-29T04:56:25.490Z,13.23
2018-05-29T04:58:52.967Z,13.77
2018-05-29T05:01:20.435Z,12.73
2018-05-29T05:03:47.871Z,13.65
2018-05-29T05:06:16.090Z,12.85
2018-05-29T05:08:43.522Z,12.30
2018-05-29T05:11:11.714Z,13.25
2018-05-29T05:13:39.921Z,14.15
2018-05-29T05:16:07.403Z,15.27
2018-05-29T05:18:34.874Z,13.77
2018-05-29T05:21:02.441Z,14.15
2018-05-29T05:23:30.679Z,13.90
2018-05-29T05:25:58.094Z,15.10
2018-05-29T05:28:25.526Z,13.80
2018-05-29T05:30:52.950Z,13.60
2018-05-29T05:33:20.406Z,13.30
2018-05-29T05:35:47.831Z,13.35
2018-05-29T05:38:15.351Z,14.10
2018-05-29T05:40:42.780Z,15.05
2018-05-29T05:43:10.311Z,14.25
2018-05-29T05:45:37.754Z,13.68
2018-05-29T05:48:05.227Z,14.32
2018-05-29T05:50:32.648Z,16.08
2018-05-29T05:53:00.082Z,14.55
2018-05-29T05:55:27.519Z,17.15
2018-05-29T05:57:55.726Z,15.65
2018-05-29T06:00:23.153Z,14.05
2018-05-29T06:02:50.665Z,18.17
2018-05-29T06:05:18.092Z,19.33
2018-05-29T06:07:46.327Z,17.37
2018-05-29T06:10:13.789Z,21.58
2018-05-29T06:12:41.226Z,18.83
2018-05-29T06:15:09.410Z,17.17
2018-05-29T06:17:37.630Z,20.77
2018-05-29T06:20:05.110Z,25.12
2018-05-29T06:22:32.538Z,20.90
2018-05-29T06:25:00.759Z,18.27
2018-05-29T06:27:28.223Z,17.73
2018-05-29T06:29:55.651Z,16.37
2018-05-29T06:32:23.176Z,21.48
2018-05-29T06:34:50.598Z,19.40
2018-05-29T06:37:18.030Z,16.02
2018-05-29T06:39:45.485Z,16.70
2018-05-29T06:42:12.915Z,16.17
2018-05-29T06:44:41.110Z,14.50
2018-05-29T06:47:09.374Z,16.40
2018-05-29T06:49:37.751Z,19.10
2018-05-29T06:52:05.186Z,17.60
2018-05-29T06:54:32.651Z,17.00
2018-05-29T06:57:00.118Z,18.73
2018-05-29T06:59:28.461Z,15.52
2018-05-29T07:01:55.882Z,17.65
2018-05-29T07:04:23.346Z,16.00
2018-05-29T07:06:50.775Z,18.37
2018-05-29T07:09:29.147Z,15.85
2018-05-29T07:11:56.614Z,14.93
2018-05-29T07:14:24.090Z,16.52
2018-05-29T07:16:51.563Z,17.67
2018-05-29T07:19:18.999Z,17.27
2018-05-29T07:21:47.190Z,16.62
2018-05-29T07:24:15.382Z,17.37
2018-05-29T07:26:42.863Z,22.17
2018-05-29T07:29:10.342Z,17.95
2018-05-29T07:31:37.806Z,15.32
2018-05-29T07:34:05.243Z,14.15
2018-05-29T07:36:33.434Z,28.35
2018-05-29T07:39:01.651Z,18.70
2018-05-29T07:41:29.073Z,15.57
2018-05-29T07:43:56.510Z,15.82
2018-05-29T07:46:23.959Z,17.67
2018-05-29T07:48:51.434Z,14.40
2018-05-29T07:51:18.868Z,15.43
2018-05-29T07:53:47.079Z,15.18
2018-05-29T07:56:15.274Z,19.83
2018-05-29T07:58:42.743Z,20.17
2018-05-29T08:01:10.219Z,17.30
2018-05-29T08:03:37.657Z,19.05
2018-05-29T08:06:05.869Z,16.70
2018-05-29T08:08:33.306Z,13.60
2018-05-29T08:11:01.522Z,13.75
2018-05-29T08:13:28.954Z,13.95
2018-05-29T08:15:57.205Z,16.50
2018-05-29T08:18:24.663Z,19.10
2018-05-29T08:20:52.128Z,18.70
2018-05-29T08:23:20.294Z,15.18
2018-05-29T08:25:48.479Z,17.73
2018-05-29T08:28:15.914Z,22.65
2018-05-29T08:30:43.439Z,20.17
2018-05-29T08:33:10.871Z,19.37
2018-05-29T08:35:39.058Z,18.77
2018-05-29T08:38:07.258Z,18.05
2018-05-29T08:40:35.450Z,18.25
2018-05-29T08:43:02.887Z,20.67
2018-05-29T08:45:31.824Z,21.20
2018-05-29T08:47:59.316Z,21.10
2018-05-29T08:50:26.734Z,21.42
2018-05-29T08:52:54.248Z,17.25
2018-05-29T08:55:21.674Z,15.80
2018-05-29T08:57:49.106Z,18.25
2018-05-29T09:00:16.538Z,16.87
2018-05-29T09:02:44.739Z,21.08
2018-05-29T09:05:12.219Z,21.42
2018-05-29T09:07:39.687Z,22.75
2018-05-29T09:10:07.154Z,20.67
2018-05-29T09:12:34.622Z,20.98
2018-05-29T09:15:02.067Z,18.05
2018-05-29T09:17:30.252Z,18.33
2018-05-29T09:19:58.496Z,18.75
2018-05-29T09:22:25.874Z,21.70
2018-05-29T09:24:53.411Z,16.00
2018-05-29T09:27:20.843Z,16.25
2018-05-29T09:29:49.127Z,16.85
2018-05-29T09:32:17.258Z,18.70
2018-05-29T09:34:44.718Z,16.02
2018-05-29T09:37:12.197Z,19.40
2018-05-29T09:39:39.662Z,17.37
2018-05-29T09:42:07.087Z,18.15
2018-05-29T09:44:34.603Z,17.30
2018-05-29T09:47:02.031Z,15.35
2018-05-29T09:49:30.259Z,15.07
2018-05-29T09:51:57.682Z,13.77
2018-05-29T09:54:25.243Z,25.08
2018-05-29T09:56:52.618Z,13.65
2018-05-29T09:59:20.050Z,15.73
2018-05-29T10:01:47.506Z,17.42
2018-05-29T10:04:14.974Z,20.55
2018-05-29T10:06:42.394Z,24.87
2018-05-29T10:09:09.830Z,18.33
2018-05-29T10:11:37.279Z,15.75
2018-05-29T10:14:04.751Z,18.50
2018-05-29T10:16:32.174Z,22.45
2018-05-29T10:18:59.610Z,17.95
2018-05-29T10:21:27.058Z,13.68
2018-05-29T10:23:54.489Z,15.93
2018-05-29T10:26:21.919Z,17.12
2018-05-29T10:28:49.350Z,16.75
2018-05-29T10:31:16.843Z,15.63
2018-05-29T10:33:44.270Z,20.80
2018-05-29T10:36:12.495Z,15.32
2018-05-29T10:38:39.962Z,16.27
2018-05-29T10:41:07.430Z,16.52
2018-05-29T10:43:34.902Z,17.00
2018-05-29T10:46:02.424Z,14.38
2018-05-29T10:48:30.665Z,18.98
2018-05-29T10:50:58.083Z,11.63
2018-05-29T10:53:25.602Z,14.85
2018-05-29T10:55:53.031Z,18.23
2018-05-29T10:58:20.543Z,15.65
2018-05-29T11:00:47.973Z,15.10
2018-05-29T11:03:15.407Z,15.07
2018-05-29T11:05:42.852Z,12.57
2018-05-29T11:08:10.278Z,14.90
2018-05-29T11:10:38.470Z,12.65
2018-05-29T11:13:06.690Z,11.95
2018-05-29T11:15:34.162Z,13.52
2018-05-29T11:18:01.592Z,12.35
2018-05-29T11:20:29.027Z,12.23
2018-05-29T11:22:56.446Z,13.52
2018-05-29T11:25:24.647Z,19.15
2018-05-29T11:27:52.129Z,12.68
2018-05-29T11:30:19.559Z,13.18
2018-05-29T11:32:46.983Z,13.93
2018-05-29T11:35:14.422Z,14.60
2018-05-29T11:37:41.841Z,17.27
2018-05-29T11:40:09.375Z,17.15
2018-05-29T11:42:36.839Z,15.70
2018-05-29T11:45:04.275Z,18.40
2018-05-29T11:47:32.466Z,17.10
2018-05-29T11:50:00.683Z,19.35
2018-05-29T11:52:28.107Z,10.45
2018-05-29T11:54:55.584Z,14.77
2018-05-29T11:57:22.970Z,12.63
2018-05-29T11:59:51.282Z,12.73
2018-05-29T12:02:18.689Z,14.98
2018-05-29T12:04:46.222Z,12.25
2018-05-29T12:07:13.642Z,12.37
2018-05-29T12:09:41.073Z,16.80
2018-05-29T12:15:04.174Z,11.68
2018-05-29T12:17:31.604Z,12.55
2018-05-29T12:19:59.798Z,12.07
2018-05-29T12:22:27.978Z,12.45
2018-05-29T12:24:56.178Z,11.43
2018-05-29T12:27:23.670Z,14.15
2018-05-29T12:29:51.113Z,10.27
2018-05-29T12:32:19.326Z,16.17
2018-05-29T12:34:46.759Z,14.30
2018-05-29T12:37:14.946Z,12.18
2018-05-29T12:39:43.171Z,13.57
2018-05-29T12:42:10.594Z,12.90
2018-05-29T12:44:38.032Z,16.15
2018-05-29T12:47:05.467Z,15.00
2018-05-29T12:49:32.945Z,15.02
2018-05-29T12:52:00.391Z,11.10
2018-05-29T12:54:27.889Z,15.45
2018-05-29T12:56:55.314Z,12.13
2018-05-29T12:59:23.514Z,13.90
2018-05-29T13:01:51.713Z,13.73
2018-05-29T13:04:19.906Z,12.80
2018-05-29T13:06:47.356Z,12.27
2018-05-29T13:09:15.567Z,12.48
2018-05-29T13:11:43.039Z,17.50
2018-05-29T13:14:10.474Z,11.95
2018-05-29T13:16:38.710Z,14.87
2018-05-29T13:19:06.894Z,9.38
2018-05-29T13:21:34.314Z,12.77
2018-05-29T13:24:02.528Z,15.18
2018-05-29T13:26:30.022Z,10.73
2018-05-29T13:28:57.482Z,15.40
2018-05-29T13:31:24.898Z,13.00
2018-05-29T13:33:52.413Z,15.90
2018-05-29T13:36:19.847Z,18.52
2018-05-29T13:38:47.362Z,13.25
2018-05-29T13:41:14.774Z,13.70
2018-05-29T13:43:42.309Z,17.85
2018-05-29T13:46:09.766Z,13.73
2018-05-29T13:48:37.187Z,15.63
2018-05-29T13:51:04.703Z,15.20
2018-05-29T13:53:32.171Z,10.02
2018-05-29T13:55:59.598Z,11.65
2018-05-29T13:58:27.122Z,9.38
2018-05-29T14:00:54.554Z,13.38
2018-05-29T14:03:22.784Z,10.82
2018-05-29T14:05:50.939Z,10.27
2018-05-29T14:08:19.152Z,8.88
2018-05-29T14:10:46.582Z,11.98
2018-05-29T14:13:14.807Z,11.68
2018-05-29T14:15:42.230Z,13.07
2018-05-29T14:18:09.749Z,12.77
2018-05-29T14:20:37.170Z,8.43
2018-05-29T14:23:04.594Z,11.45
2018-05-29T14:25:32.018Z,12.50
2018-05-29T14:28:00.238Z,8.40
2018-05-29T14:30:27.679Z,12.25
2018-05-29T14:32:55.891Z,7.85
2018-05-29T14:35:23.365Z,9.27
2018-05-29T14:37:50.782Z,11.63
2018-05-29T14:40:18.302Z,14.63
2018-05-29T14:42:45.782Z,8.32
2018-05-29T14:45:13.230Z,10.40
2018-05-29T14:47:40.646Z,9.35
2018-05-29T14:50:08.293Z,9.45
2018-05-29T14:52:35.708Z,8.52
2018-05-29T14:55:03.143Z,11.07
2018-05-29T14:57:30.590Z,9.93
2018-05-29T14:59:58.023Z,11.38
2018-05-29T15:02:25.533Z,12.02
2018-05-29T15:04:52.958Z,17.08
2018-05-29T15:07:20.483Z,13.20
2018-05-29T15:09:47.914Z,7.95
2018-05-29T15:12:16.130Z,11.05
2018-05-29T15:14:43.567Z,13.95
2018-05-29T15:17:11.786Z,13.45
2018-05-29T15:19:39.230Z,10.57
2018-05-29T15:22:07.413Z,10.88
2018-05-29T15:24:35.670Z,9.00
2018-05-29T15:27:03.098Z,14.87
2018-05-29T15:29:30.571Z,14.45
2018-05-29T15:31:58.044Z,11.18
2018-05-29T15:34:25.505Z,10.82
2018-05-29T15:36:52.895Z,10.70
2018-05-29T15:39:20.325Z,14.98
2018-05-29T15:41:48.510Z,8.98
2018-05-29T15:44:16.726Z,14.68
2018-05-29T15:46:44.155Z,17.17
2018-05-29T15:49:11.665Z,14.07
2018-05-29T15:51:39.135Z,13.88
2018-05-29T15:54:06.553Z,14.50
2018-05-29T15:56:33.986Z,10.48
2018-05-29T15:59:01.447Z,12.93
2018-05-29T16:01:28.879Z,15.02
2018-05-29T16:03:57.103Z,14.38
2018-05-29T16:06:24.526Z,13.50
2018-05-29T16:08:52.001Z,11.98
2018-05-29T16:11:19.592Z,11.93
2018-05-29T16:13:46.974Z,16.25
2018-05-29T16:16:14.402Z,13.57
2018-05-29T16:18:42.586Z,13.00
2018-05-29T16:21:10.020Z,13.90
2018-05-29T16:23:37.466Z,12.15
2018-05-29T16:26:04.898Z,11.20
2018-05-29T16:28:32.415Z,14.87
2018-05-29T16:30:59.875Z,10.30
2018-05-29T16:33:27.351Z,10.05
2018-05-29T16:35:54.784Z,12.37
2018-05-29T16:38:22.974Z,16.25
2018-05-29T16:40:51.194Z,16.33
2018-05-29T16:43:18.609Z,13.18
2018-05-29T16:45:46.039Z,9.10
2018-05-29T16:48:13.498Z,12.93
2018-05-29T16:50:40.939Z,12.30
2018-05-29T16:53:08.550Z,13.10
2018-05-29T16:55:35.974Z,11.10
2018-05-29T16:58:03.390Z,14.20
2018-05-29T17:00:30.823Z,13.48
2018-05-29T17:02:59.018Z,9.35
2018-05-29T17:05:27.208Z,10.90
2018-05-29T17:07:54.636Z,14.00
2018-05-29T17:10:22.170Z,12.73
2018-05-29T17:12:49.585Z,12.57
2018-05-29T17:15:17.128Z,14.15
2018-05-29T17:17:44.530Z,11.43
2018-05-29T17:20:12.050Z,10.55
2018-05-29T17:22:39.659Z,12.57
2018-05-29T17:25:07.184Z,11.27
2018-05-29T17:27:34.598Z,9.05
2018-05-29T17:30:02.128Z,10.95
2018-05-29T17:32:29.547Z,7.80
2018-05-29T17:34:56.974Z,9.20
2018-05-29T17:37:24.400Z,8.05
2018-05-29T17:39:51.822Z,11.20
2018-05-29T17:42:19.247Z,9.38
2018-05-29T17:44:47.434Z,9.10
2018-05-29T17:47:15.627Z,17.10
2018-05-29T17:49:43.839Z,11.43
2018-05-29T17:52:11.307Z,10.82
2018-05-29T17:54:38.736Z,7.60
2018-05-29T17:57:06.954Z,7.10
2018-05-29T17:59:34.426Z,7.75
2018-05-29T18:02:01.914Z,13.10
2018-05-29T18:04:29.326Z,7.95
2018-05-29T18:06:56.834Z,6.53
2018-05-29T18:09:24.255Z,12.18
2018-05-29T18:11:52.454Z,8.25
2018-05-29T18:14:19.873Z,10.60
2018-05-29T18:16:47.304Z,9.85
2018-05-29T18:19:15.522Z,9.65
2018-05-29T18:21:42.994Z,9.77
2018-05-29T18:24:10.442Z,6.12
2018-05-29T18:26:37.873Z,16.12
2018-05-29T18:29:05.402Z,11.98
2018-05-29T18:31:32.852Z,8.95
2018-05-29T18:34:00.338Z,6.90
2018-05-29T18:36:27.771Z,8.63
2018-05-29T18:38:56.007Z,8.68
2018-05-29T18:41:23.436Z,10.30
2018-05-29T18:43:51.622Z,11.75
2018-05-29T18:46:19.818Z,7.22
2018-05-29T18:48:48.036Z,6.37
2018-05-29T18:51:15.504Z,10.75
2018-05-29T18:53:43.104Z,8.85
2018-05-29T18:56:10.536Z,6.97
2018-05-29T18:58:37.954Z,10.13
2018-05-29T19:01:05.483Z,8.80
2018-05-29T19:03:32.992Z,11.32
2018-05-29T19:06:00.378Z,13.70
2018-05-29T19:08:27.807Z,6.28
2018-05-29T19:10:55.254Z,8.05
2018-05-29T19:13:22.670Z,9.00
2018-05-29T19:15:51.780Z,12.70
2018-05-29T19:18:20.298Z,13.77
2018-05-29T19:20:48.498Z,12.37
2018-05-29T19:23:16.680Z,9.35
2018-05-29T19:25:44.870Z,9.25
2018-05-29T19:28:13.057Z,8.75
2018-05-29T19:30:41.263Z,14.50
2018-05-29T19:33:08.682Z,13.27
2018-05-29T19:35:36.209Z,8.98
2018-05-29T19:38:03.691Z,12.52
2018-05-29T19:40:31.147Z,12.25
2018-05-29T19:42:58.569Z,10.75
2018-05-29T19:45:26.087Z,10.23
2018-05-29T19:47:53.559Z,8.57
2018-05-29T19:50:21.022Z,8.40
2018-05-29T19:52:48.441Z,8.15
2018-05-29T19:55:15.878Z,11.32
2018-05-29T19:57:43.334Z,8.85
2018-05-29T20:00:10.754Z,9.07
2018-05-29T20:02:38.178Z,6.90
2018-05-29T20:05:05.649Z,8.13
2018-05-29T20:07:33.075Z,9.55
2018-05-29T20:10:01.254Z,9.73
2018-05-29T20:12:28.687Z,14.77
2018-05-29T20:14:56.138Z,6.40
2018-05-29T20:17:30.563Z,9.20
2018-05-29T20:19:58.033Z,6.53
2018-05-29T20:22:25.517Z,11.93
2018-05-29T20:24:52.941Z,9.25
2018-05-29T20:27:21.134Z,10.68
2018-05-29T20:29:49.326Z,10.77
2018-05-29T20:32:17.518Z,12.37
2018-05-29T20:34:45.722Z,9.63
2018-05-29T20:37:13.199Z,6.80
2018-05-29T20:39:40.619Z,8.73
2018-05-29T20:42:08.050Z,11.93
2018-05-29T20:44:35.499Z,8.52
2018-05-29T20:47:02.926Z,11.73
2018-05-29T20:49:30.355Z,15.45
2018-05-29T20:51:57.779Z,9.23
2018-05-29T20:54:25.994Z,8.77
2018-05-29T20:56:53.426Z,11.55
2018-05-29T20:59:20.934Z,15.52
2018-05-29T21:01:48.362Z,9.73
2018-05-29T21:04:16.595Z,10.00
2018-05-29T21:06:44.067Z,11.52
2018-05-29T21:09:11.491Z,7.32
2018-05-29T21:11:39.018Z,17.17
2018-05-29T21:14:06.478Z,13.10
2018-05-29T21:16:33.939Z,7.95
2018-05-29T21:19:01.410Z,8.43
2018-05-29T21:21:28.887Z,10.18
2018-05-29T21:23:56.307Z,9.40
2018-05-29T21:26:24.541Z,8.63
2018-05-29T21:28:52.010Z,10.15
2018-05-29T21:31:19.438Z,11.12
2018-05-29T21:33:46.862Z,6.62
2018-05-29T21:36:14.325Z,8.38
2018-05-29T21:38:41.922Z,9.40
2018-05-29T21:41:09.475Z,6.50
2018-05-29T21:43:36.894Z,8.45
2018-05-29T21:46:04.319Z,13.07
2018-05-29T21:48:31.770Z,9.50
2018-05-29T21:50:59.254Z,10.38
2018-05-29T21:53:26.710Z,9.75
2018-05-29T21:55:54.166Z,10.68
2018-05-29T21:58:21.647Z,8.93
2018-05-29T22:00:49.138Z,7.07
2018-05-29T22:03:16.566Z,10.07
2018-05-29T22:05:44.745Z,7.95
2018-05-29T22:08:12.941Z,7.90
2018-05-29T22:10:41.117Z,6.45
2018-05-29T22:13:09.314Z,8.98
2018-05-29T22:15:37.525Z,16.75
2018-05-29T22:18:04.946Z,6.65
2018-05-29T22:20:32.466Z,11.15
2018-05-29T22:22:59.890Z,10.55
2018-05-29T22:25:27.406Z,11.88
2018-05-29T22:27:54.834Z,9.75
2018-05-29T22:30:22.314Z,9.57
2018-05-29T22:32:49.689Z,10.00
2018-05-29T22:35:17.879Z,11.98
2018-05-29T22:37:46.090Z,10.73
2018-05-29T22:40:13.550Z,9.65
2018-05-29T22:42:40.983Z,8.65
2018-05-29T22:45:08.591Z,10.48
2018-05-29T22:47:36.026Z,11.80
2018-05-29T22:50:03.639Z,10.18
2018-05-29T22:52:31.814Z,13.75
2018-05-29T22:54:59.298Z,8.18
2018-05-29T22:57:26.763Z,8.40
2018-05-29T22:59:55.162Z,12.43
2018-05-29T23:02:22.586Z,9.20
2018-05-29T23:04:50.102Z,15.50
2018-05-29T23:07:17.567Z,9.80
2018-05-29T23:09:44.990Z,10.15
2018-05-29T23:12:12.511Z,6.87
2018-05-29T23:14:39.937Z,11.00
2018-05-29T23:17:07.371Z,11.02
2018-05-29T23:19:34.786Z,8.60
2018-05-29T23:22:02.984Z,10.48
2018-05-29T23:24:30.402Z,13.82
2018-05-29T23:26:57.942Z,7.15
2018-05-29T23:29:25.366Z,13.18
2018-05-29T23:31:52.880Z,7.65
2018-05-29T23:34:20.302Z,13.23
2018-05-29T23:36:47.741Z,12.02
2018-05-29T23:39:15.189Z,9.63
2018-05-29T23:41:42.658Z,8.48
2018-05-29T23:44:10.087Z,13.07
2018-05-29T23:46:37.599Z,12.32
2018-05-29T23:49:05.014Z,12.60
2018-05-29T23:51:32.441Z,12.10
2018-05-29T23:53:59.863Z,8.93
2018-05-29T23:56:28.096Z,14.90
2018-05-29T23:58:55.514Z,8.55
